sensor_id;sensor_type;location;lat;lon;timestamp;P1;durP1;ratioP1;P2;durP2;ratioP2
5006;SDS011;2522;50.972;11.046;2022-09-21T03:32:56;4.80;;;2.27;;
5006;SDS011;2522;50.972;11.046;2022-09-21T03:35:23;5.80;;;2.70;;
5006;SDS011;2522;50.972;11.046;2022-09-21T03:37:51;8.80;;;2.50;;
5006;SDS011;2522;50.972;11.046;2022-09-21T03:40:19;5.47;;;2.20;;
5006;SDS011;2522;50.972;11.046;2022-09-21T03:42:47;3.63;;;1.87;;
5006;SDS011;2522;50.972;11.046;2022-09-21T03:45:14;6.47;;;2.60;;
5006;SDS011;2522;50.972;11.046;2022-09-21T03:47:41;3.60;;;2.37;;
5006;SDS011;2522;50.972;11.046;2022-09-21T03:50:09;6.00;;;2.77;;
5006;SDS011;2522;50.972;11.046;2022-09-21T03:52:37;4.60;;;2.30;;
5006;SDS011;2522;50.972;11.046;2022-09-21T03:55:04;5.13;;;2.10;;
5006;SDS011;2522;50.972;11.046;2022-09-21T03:57:32;3.20;;;1.80;;
5006;SDS011;2522;50.972;11.046;2022-09-21T03:59:59;4.40;;;2.60;;
5006;SDS011;2522;50.972;11.046;2022-09-21T04:02:27;4.07;;;2.07;;
5006;SDS011;2522;50.972;11.046;2022-09-21T04:04:54;3.97;;;2.00;;
5006;SDS011;2522;50.972;11.046;2022-09-21T04:07:22;5.20;;;2.53;;
5006;SDS011;2522;50.972;11.046;2022-09-21T04:09:48;3.80;;;1.77;;
5006;SDS011;2522;50.972;11.046;2022-09-21T04:12:16;3.43;;;2.30;;
5006;SDS011;2522;50.972;11.046;2022-09-21T04:14:46;3.13;;;2.20;;
5006;SDS011;2522;50.972;11.046;2022-09-21T04:17:13;7.07;;;2.00;;
5006;SDS011;2522;50.972;11.046;2022-09-21T04:19:40;6.47;;;2.00;;
5006;SDS011;2522;50.972;11.046;2022-09-21T04:22:09;3.23;;;2.20;;
5006;SDS011;2522;50.972;11.046;2022-09-21T04:24:37;4.60;;;2.50;;
5006;SDS011;2522;50.972;11.046;2022-09-21T04:27:05;3.57;;;2.30;;
5006;SDS011;2522;50.972;11.046;2022-09-21T04:29:31;3.50;;;2.00;;
5006;SDS011;2522;50.972;11.046;2022-09-21T04:31:58;4.10;;;2.40;;
5006;SDS011;2522;50.972;11.046;2022-09-21T04:34:28;4.17;;;2.53;;
5006;SDS011;2522;50.972;11.046;2022-09-21T04:36:56;6.30;;;2.73;;
5006;SDS011;2522;50.972;11.046;2022-09-21T04:39:23;8.03;;;2.73;;
5006;SDS011;2522;50.972;11.046;2022-09-21T04:41:51;4.07;;;2.50;;
5006;SDS011;2522;50.972;11.046;2022-09-21T04:44:18;4.57;;;2.60;;
5006;SDS011;2522;50.972;11.046;2022-09-21T04:46:45;4.90;;;2.47;;
5006;SDS011;2522;50.972;11.046;2022-09-21T04:49:12;3.83;;;2.10;;
5006;SDS011;2522;50.972;11.046;2022-09-21T04:51:39;6.43;;;2.83;;
5006;SDS011;2522;50.972;11.046;2022-09-21T04:54:05;5.20;;;2.80;;
5006;SDS011;2522;50.972;11.046;2022-09-21T04:56:32;3.27;;;2.10;;
5006;SDS011;2522;50.972;11.046;2022-09-21T04:59:01;9.03;;;2.57;;
5006;SDS011;2522;50.972;11.046;2022-09-21T05:01:28;3.73;;;1.90;;
5006;SDS011;2522;50.972;11.046;2022-09-21T05:03:54;3.90;;;2.23;;
5006;SDS011;2522;50.972;11.046;2022-09-21T05:06:25;4.97;;;2.53;;
5006;SDS011;2522;50.972;11.046;2022-09-21T05:08:52;7.10;;;2.27;;
5006;SDS011;2522;50.972;11.046;2022-09-21T05:11:36;12.77;;;2.80;;
5006;SDS011;2522;50.972;11.046;2022-09-21T05:14:05;5.77;;;2.40;;
5006;SDS011;2522;50.972;11.046;2022-09-21T05:16:32;5.03;;;2.40;;
5006;SDS011;2522;50.972;11.046;2022-09-21T05:18:59;6.70;;;2.70;;
5006;SDS011;2522;50.972;11.046;2022-09-21T05:21:26;5.57;;;2.93;;
5006;SDS011;2522;50.972;11.046;2022-09-21T05:23:54;6.57;;;2.97;;
5006;SDS011;2522;50.972;11.046;2022-09-21T05:26:21;5.30;;;3.20;;
5006;SDS011;2522;50.972;11.046;2022-09-21T05:28:48;6.20;;;2.97;;
5006;SDS011;2522;50.972;11.046;2022-09-21T05:31:26;5.20;;;2.50;;
5006;SDS011;2522;50.972;11.046;2022-09-21T05:34:02;5.40;;;2.47;;
5006;SDS011;2522;50.972;11.046;2022-09-21T05:36:36;4.50;;;2.73;;
5006;SDS011;2522;50.972;11.046;2022-09-21T05:39:10;4.37;;;1.90;;
5006;SDS011;2522;50.972;11.046;2022-09-21T05:41:37;6.30;;;3.17;;
5006;SDS011;2522;50.972;11.046;2022-09-21T05:44:05;7.53;;;2.73;;
5006;SDS011;2522;50.972;11.046;2022-09-21T05:46:37;5.50;;;2.57;;
5006;SDS011;2522;50.972;11.046;2022-09-21T05:49:08;6.70;;;2.03;;
5006;SDS011;2522;50.972;11.046;2022-09-21T05:51:44;4.03;;;2.20;;
5006;SDS011;2522;50.972;11.046;2022-09-21T05:54:20;3.60;;;2.13;;
5006;SDS011;2522;50.972;11.046;2022-09-21T05:56:53;4.10;;;2.60;;
5006;SDS011;2522;50.972;11.046;2022-09-21T05:59:30;4.23;;;2.60;;
5006;SDS011;2522;50.972;11.046;2022-09-21T06:02:07;5.13;;;2.30;;
5006;SDS011;2522;50.972;11.046;2022-09-21T06:04:43;6.77;;;2.70;;
5006;SDS011;2522;50.972;11.046;2022-09-21T06:07:13;4.00;;;2.23;;
5006;SDS011;2522;50.972;11.046;2022-09-21T06:09:40;6.10;;;2.90;;
5006;SDS011;2522;50.972;11.046;2022-09-21T06:12:07;4.40;;;2.77;;
5006;SDS011;2522;50.972;11.046;2022-09-21T06:14:35;3.23;;;1.80;;
5006;SDS011;2522;50.972;11.046;2022-09-21T06:17:02;5.10;;;2.67;;
5006;SDS011;2522;50.972;11.046;2022-09-21T06:19:30;4.50;;;3.23;;
5006;SDS011;2522;50.972;11.046;2022-09-21T06:21:57;4.30;;;2.27;;
5006;SDS011;2522;50.972;11.046;2022-09-21T06:24:24;10.10;;;3.30;;
5006;SDS011;2522;50.972;11.046;2022-09-21T06:26:51;5.27;;;2.63;;
5006;SDS011;2522;50.972;11.046;2022-09-21T06:29:18;4.50;;;2.53;;
5006;SDS011;2522;50.972;11.046;2022-09-21T06:31:47;3.57;;;2.20;;
5006;SDS011;2522;50.972;11.046;2022-09-21T06:34:14;6.50;;;2.60;;
5006;SDS011;2522;50.972;11.046;2022-09-21T06:36:42;5.67;;;2.53;;
5006;SDS011;2522;50.972;11.046;2022-09-21T06:39:10;5.50;;;2.50;;
5006;SDS011;2522;50.972;11.046;2022-09-21T06:41:37;5.90;;;2.80;;
5006;SDS011;2522;50.972;11.046;2022-09-21T06:44:04;6.13;;;3.17;;
5006;SDS011;2522;50.972;11.046;2022-09-21T06:46:30;17.43;;;3.63;;
5006;SDS011;2522;50.972;11.046;2022-09-21T06:48:57;6.53;;;3.80;;
5006;SDS011;2522;50.972;11.046;2022-09-21T06:51:24;9.73;;;3.40;;
5006;SDS011;2522;50.972;11.046;2022-09-21T06:53:54;4.40;;;2.97;;
5006;SDS011;2522;50.972;11.046;2022-09-21T06:56:24;4.93;;;3.20;;
5006;SDS011;2522;50.972;11.046;2022-09-21T06:58:51;6.23;;;3.30;;
5006;SDS011;2522;50.972;11.046;2022-09-21T07:01:18;5.03;;;3.10;;
5006;SDS011;2522;50.972;11.046;2022-09-21T07:03:48;6.20;;;3.13;;
5006;SDS011;2522;50.972;11.046;2022-09-21T07:06:15;7.40;;;2.90;;
5006;SDS011;2522;50.972;11.046;2022-09-21T07:08:45;5.23;;;2.33;;
5006;SDS011;2522;50.972;11.046;2022-09-21T07:11:13;4.67;;;2.77;;
5006;SDS011;2522;50.972;11.046;2022-09-21T07:13:40;4.87;;;2.40;;
5006;SDS011;2522;50.972;11.046;2022-09-21T07:16:08;9.43;;;2.80;;
5006;SDS011;2522;50.972;11.046;2022-09-21T07:18:36;8.83;;;2.80;;
5006;SDS011;2522;50.972;11.046;2022-09-21T07:21:06;6.20;;;2.50;;
5006;SDS011;2522;50.972;11.046;2022-09-21T07:23:35;3.07;;;1.93;;
5006;SDS011;2522;50.972;11.046;2022-09-21T07:26:02;9.33;;;2.40;;
5006;SDS011;2522;50.972;11.046;2022-09-21T07:28:32;8.27;;;2.40;;
5006;SDS011;2522;50.972;11.046;2022-09-21T07:31:04;4.40;;;1.57;;
5006;SDS011;2522;50.972;11.046;2022-09-21T07:33:31;4.93;;;2.47;;
5006;SDS011;2522;50.972;11.046;2022-09-21T07:35:59;4.90;;;2.43;;
5006;SDS011;2522;50.972;11.046;2022-09-21T07:38:27;3.63;;;2.60;;
5006;SDS011;2522;50.972;11.046;2022-09-21T07:40:55;15.97;;;2.80;;
5006;SDS011;2522;50.972;11.046;2022-09-21T07:43:22;3.60;;;2.20;;
5006;SDS011;2522;50.972;11.046;2022-09-21T07:45:53;4.43;;;2.33;;
5006;SDS011;2522;50.972;11.046;2022-09-21T07:48:20;6.07;;;2.90;;
5006;SDS011;2522;50.972;11.046;2022-09-21T07:50:48;3.97;;;2.67;;
5006;SDS011;2522;50.972;11.046;2022-09-21T07:53:15;4.10;;;2.80;;
5006;SDS011;2522;50.972;11.046;2022-09-21T07:55:42;3.43;;;2.33;;
5006;SDS011;2522;50.972;11.046;2022-09-21T07:58:09;8.47;;;2.33;;
5006;SDS011;2522;50.972;11.046;2022-09-21T08:00:55;2.93;;;1.97;;
5006;SDS011;2522;50.972;11.046;2022-09-21T08:03:22;3.33;;;2.23;;
5006;SDS011;2522;50.972;11.046;2022-09-21T08:05:49;3.83;;;2.17;;
5006;SDS011;2522;50.972;11.046;2022-09-21T08:08:16;5.47;;;2.80;;
5006;SDS011;2522;50.972;11.046;2022-09-21T08:10:43;4.97;;;2.40;;
5006;SDS011;2522;50.972;11.046;2022-09-21T08:13:10;5.13;;;2.40;;
5006;SDS011;2522;50.972;11.046;2022-09-21T08:15:37;4.97;;;2.40;;
5006;SDS011;2522;50.972;11.046;2022-09-21T08:18:05;5.30;;;3.20;;
5006;SDS011;2522;50.972;11.046;2022-09-21T08:20:32;4.40;;;2.10;;
5006;SDS011;2522;50.972;11.046;2022-09-21T08:22:59;4.90;;;2.83;;
5006;SDS011;2522;50.972;11.046;2022-09-21T08:25:26;3.57;;;2.40;;
5006;SDS011;2522;50.972;11.046;2022-09-21T08:27:56;7.60;;;3.00;;
5006;SDS011;2522;50.972;11.046;2022-09-21T08:30:24;7.20;;;2.53;;
5006;SDS011;2522;50.972;11.046;2022-09-21T08:32:53;6.13;;;2.37;;
5006;SDS011;2522;50.972;11.046;2022-09-21T08:35:21;7.83;;;2.53;;
5006;SDS011;2522;50.972;11.046;2022-09-21T08:37:48;11.73;;;2.77;;
5006;SDS011;2522;50.972;11.046;2022-09-21T08:40:19;6.00;;;2.70;;
5006;SDS011;2522;50.972;11.046;2022-09-21T08:42:48;9.20;;;2.50;;
5006;SDS011;2522;50.972;11.046;2022-09-21T08:45:24;7.93;;;2.63;;
5006;SDS011;2522;50.972;11.046;2022-09-21T08:47:59;5.73;;;2.17;;
5006;SDS011;2522;50.972;11.046;2022-09-21T08:50:32;3.40;;;1.60;;
5006;SDS011;2522;50.972;11.046;2022-09-21T08:53:03;8.50;;;2.00;;
5006;SDS011;2522;50.972;11.046;2022-09-21T08:55:33;8.57;;;1.90;;
5006;SDS011;2522;50.972;11.046;2022-09-21T08:58:00;7.70;;;2.10;;
5006;SDS011;2522;50.972;11.046;2022-09-21T09:00:26;13.80;;;1.80;;
5006;SDS011;2522;50.972;11.046;2022-09-21T09:03:11;4.90;;;2.37;;
5006;SDS011;2522;50.972;11.046;2022-09-21T09:05:48;3.80;;;2.60;;
5006;SDS011;2522;50.972;11.046;2022-09-21T09:08:23;4.47;;;2.20;;
5006;SDS011;2522;50.972;11.046;2022-09-21T09:11:07;4.73;;;2.00;;
5006;SDS011;2522;50.972;11.046;2022-09-21T09:13:52;3.60;;;2.20;;
5006;SDS011;2522;50.972;11.046;2022-09-21T09:16:30;5.13;;;2.10;;
5006;SDS011;2522;50.972;11.046;2022-09-21T09:19:10;3.57;;;1.73;;
5006;SDS011;2522;50.972;11.046;2022-09-21T09:21:46;2.67;;;1.57;;
5006;SDS011;2522;50.972;11.046;2022-09-21T09:24:14;4.70;;;1.40;;
5006;SDS011;2522;50.972;11.046;2022-09-21T09:26:45;3.07;;;1.80;;
5006;SDS011;2522;50.972;11.046;2022-09-21T09:29:19;7.37;;;2.43;;
5006;SDS011;2522;50.972;11.046;2022-09-21T09:31:50;4.27;;;1.40;;
5006;SDS011;2522;50.972;11.046;2022-09-21T09:34:20;5.97;;;1.50;;
5006;SDS011;2522;50.972;11.046;2022-09-21T09:36:57;3.73;;;1.10;;
5006;SDS011;2522;50.972;11.046;2022-09-21T09:39:25;4.40;;;1.80;;
5006;SDS011;2522;50.972;11.046;2022-09-21T09:41:59;4.77;;;1.90;;
5006;SDS011;2522;50.972;11.046;2022-09-21T09:44:50;8.90;;;1.37;;
5006;SDS011;2522;50.972;11.046;2022-09-21T09:47:28;6.50;;;1.57;;
5006;SDS011;2522;50.972;11.046;2022-09-21T09:50:03;1.70;;;1.07;;
5006;SDS011;2522;50.972;11.046;2022-09-21T09:52:35;14.40;;;1.50;;
5006;SDS011;2522;50.972;11.046;2022-09-21T09:55:09;2.23;;;1.40;;
5006;SDS011;2522;50.972;11.046;2022-09-21T09:57:40;2.80;;;1.43;;
5006;SDS011;2522;50.972;11.046;2022-09-21T10:00:11;3.97;;;1.33;;
5006;SDS011;2522;50.972;11.046;2022-09-21T10:02:44;7.60;;;1.60;;
5006;SDS011;2522;50.972;11.046;2022-09-21T10:05:18;6.70;;;1.57;;
5006;SDS011;2522;50.972;11.046;2022-09-21T10:07:48;6.47;;;1.37;;
5006;SDS011;2522;50.972;11.046;2022-09-21T10:10:32;4.13;;;1.00;;
5006;SDS011;2522;50.972;11.046;2022-09-21T10:13:02;3.27;;;1.00;;
5006;SDS011;2522;50.972;11.046;2022-09-21T10:15:37;6.40;;;1.80;;
5006;SDS011;2522;50.972;11.046;2022-09-21T10:18:11;2.57;;;1.10;;
5006;SDS011;2522;50.972;11.046;2022-09-21T10:20:50;4.23;;;1.10;;
5006;SDS011;2522;50.972;11.046;2022-09-21T10:23:28;9.50;;;1.40;;
5006;SDS011;2522;50.972;11.046;2022-09-21T10:25:57;4.07;;;0.97;;
5006;SDS011;2522;50.972;11.046;2022-09-21T10:28:26;6.73;;;1.50;;
5006;SDS011;2522;50.972;11.046;2022-09-21T10:33:51;6.10;;;1.43;;
5006;SDS011;2522;50.972;11.046;2022-09-21T10:36:27;3.67;;;1.13;;
5006;SDS011;2522;50.972;11.046;2022-09-21T10:38:58;3.47;;;1.10;;
5006;SDS011;2522;50.972;11.046;2022-09-21T10:41:53;7.20;;;1.50;;
5006;SDS011;2522;50.972;11.046;2022-09-21T10:44:24;4.60;;;1.30;;
5006;SDS011;2522;50.972;11.046;2022-09-21T10:46:53;1.70;;;1.00;;
5006;SDS011;2522;50.972;11.046;2022-09-21T10:49:21;4.50;;;1.20;;
5006;SDS011;2522;50.972;11.046;2022-09-21T10:51:51;7.60;;;1.20;;
5006;SDS011;2522;50.972;11.046;2022-09-21T10:54:23;2.30;;;1.20;;
5006;SDS011;2522;50.972;11.046;2022-09-21T10:56:53;7.07;;;1.20;;
5006;SDS011;2522;50.972;11.046;2022-09-21T10:59:23;4.97;;;1.03;;
5006;SDS011;2522;50.972;11.046;2022-09-21T11:01:52;9.20;;;1.70;;
5006;SDS011;2522;50.972;11.046;2022-09-21T11:04:22;4.27;;;1.50;;
5006;SDS011;2522;50.972;11.046;2022-09-21T11:07:05;5.63;;;1.33;;
5006;SDS011;2522;50.972;11.046;2022-09-21T11:09:43;3.87;;;1.20;;
5006;SDS011;2522;50.972;11.046;2022-09-21T11:12:26;8.23;;;1.03;;
5006;SDS011;2522;50.972;11.046;2022-09-21T11:15:01;6.23;;;1.03;;
5006;SDS011;2522;50.972;11.046;2022-09-21T11:17:41;3.80;;;1.20;;
5006;SDS011;2522;50.972;11.046;2022-09-21T11:20:14;4.90;;;1.20;;
5006;SDS011;2522;50.972;11.046;2022-09-21T11:22:52;1.90;;;0.90;;
5006;SDS011;2522;50.972;11.046;2022-09-21T11:25:27;4.97;;;0.80;;
5006;SDS011;2522;50.972;11.046;2022-09-21T11:28:03;4.43;;;1.00;;
5006;SDS011;2522;50.972;11.046;2022-09-21T11:30:41;5.30;;;1.47;;
5006;SDS011;2522;50.972;11.046;2022-09-21T11:33:22;5.27;;;1.10;;
5006;SDS011;2522;50.972;11.046;2022-09-21T11:35:59;10.53;;;1.33;;
5006;SDS011;2522;50.972;11.046;2022-09-21T11:38:36;4.13;;;1.20;;
5006;SDS011;2522;50.972;11.046;2022-09-21T11:41:16;3.10;;;0.93;;
5006;SDS011;2522;50.972;11.046;2022-09-21T11:44:14;8.00;;;0.90;;
5006;SDS011;2522;50.972;11.046;2022-09-21T11:46:58;6.17;;;0.90;;
5006;SDS011;2522;50.972;11.046;2022-09-21T11:49:40;5.63;;;0.90;;
5006;SDS011;2522;50.972;11.046;2022-09-21T11:52:26;3.13;;;1.07;;
5006;SDS011;2522;50.972;11.046;2022-09-21T11:55:09;4.73;;;1.17;;
5006;SDS011;2522;50.972;11.046;2022-09-21T11:58:04;4.30;;;1.13;;
5006;SDS011;2522;50.972;11.046;2022-09-21T12:00:40;4.27;;;1.20;;
5006;SDS011;2522;50.972;11.046;2022-09-21T12:06:10;2.87;;;1.23;;
5006;SDS011;2522;50.972;11.046;2022-09-21T12:08:51;6.17;;;0.87;;
5006;SDS011;2522;50.972;11.046;2022-09-21T12:11:28;3.03;;;1.10;;
5006;SDS011;2522;50.972;11.046;2022-09-21T12:14:03;7.47;;;1.03;;
5006;SDS011;2522;50.972;11.046;2022-09-21T12:16:40;3.00;;;0.90;;
5006;SDS011;2522;50.972;11.046;2022-09-21T12:19:16;5.13;;;1.07;;
5006;SDS011;2522;50.972;11.046;2022-09-21T12:21:49;6.17;;;1.10;;
5006;SDS011;2522;50.972;11.046;2022-09-21T12:24:22;3.07;;;1.00;;
5006;SDS011;2522;50.972;11.046;2022-09-21T12:26:55;5.33;;;1.20;;
5006;SDS011;2522;50.972;11.046;2022-09-21T12:29:25;3.10;;;1.30;;
5006;SDS011;2522;50.972;11.046;2022-09-21T12:32:01;6.73;;;0.83;;
5006;SDS011;2522;50.972;11.046;2022-09-21T12:34:33;6.20;;;1.10;;
5006;SDS011;2522;50.972;11.046;2022-09-21T12:37:10;8.60;;;1.10;;
5006;SDS011;2522;50.972;11.046;2022-09-21T12:39:41;3.50;;;1.00;;
5006;SDS011;2522;50.972;11.046;2022-09-21T12:42:18;5.50;;;1.20;;
5006;SDS011;2522;50.972;11.046;2022-09-21T12:44:54;5.97;;;1.30;;
5006;SDS011;2522;50.972;11.046;2022-09-21T12:47:26;5.33;;;1.20;;
5006;SDS011;2522;50.972;11.046;2022-09-21T12:50:14;3.60;;;0.73;;
5006;SDS011;2522;50.972;11.046;2022-09-21T12:52:45;2.90;;;0.90;;
5006;SDS011;2522;50.972;11.046;2022-09-21T12:55:18;5.70;;;0.93;;
5006;SDS011;2522;50.972;11.046;2022-09-21T12:57:55;6.83;;;0.80;;
5006;SDS011;2522;50.972;11.046;2022-09-21T13:00:41;2.53;;;0.97;;
5006;SDS011;2522;50.972;11.046;2022-09-21T13:03:14;4.63;;;1.00;;
5006;SDS011;2522;50.972;11.046;2022-09-21T13:05:49;5.17;;;1.00;;
5006;SDS011;2522;50.972;11.046;2022-09-21T13:08:36;3.07;;;0.90;;
5006;SDS011;2522;50.972;11.046;2022-09-21T13:11:06;1.40;;;0.73;;
5006;SDS011;2522;50.972;11.046;2022-09-21T13:13:35;5.07;;;0.80;;
5006;SDS011;2522;50.972;11.046;2022-09-21T13:16:06;1.73;;;0.60;;
5006;SDS011;2522;50.972;11.046;2022-09-21T13:18:47;1.93;;;0.90;;
5006;SDS011;2522;50.972;11.046;2022-09-21T13:21:23;4.00;;;1.00;;
5006;SDS011;2522;50.972;11.046;2022-09-21T13:23:54;2.93;;;0.80;;
5006;SDS011;2522;50.972;11.046;2022-09-21T13:26:30;2.67;;;0.97;;
5006;SDS011;2522;50.972;11.046;2022-09-21T13:29:05;6.73;;;1.27;;
5006;SDS011;2522;50.972;11.046;2022-09-21T13:31:55;5.80;;;0.73;;
5006;SDS011;2522;50.972;11.046;2022-09-21T13:34:24;6.33;;;0.70;;
5006;SDS011;2522;50.972;11.046;2022-09-21T13:37:12;2.47;;;0.93;;
5006;SDS011;2522;50.972;11.046;2022-09-21T13:39:49;6.60;;;1.10;;
5006;SDS011;2522;50.972;11.046;2022-09-21T13:42:45;8.33;;;0.90;;
5006;SDS011;2522;50.972;11.046;2022-09-21T13:48:18;4.83;;;0.97;;
5006;SDS011;2522;50.972;11.046;2022-09-21T13:50:57;2.00;;;0.80;;
5006;SDS011;2522;50.972;11.046;2022-09-21T13:53:32;5.10;;;0.90;;
5006;SDS011;2522;50.972;11.046;2022-09-21T13:56:07;3.30;;;1.33;;
5006;SDS011;2522;50.972;11.046;2022-09-21T13:58:42;2.80;;;0.70;;
5006;SDS011;2522;50.972;11.046;2022-09-21T14:01:15;3.27;;;1.00;;
5006;SDS011;2522;50.972;11.046;2022-09-21T14:03:46;5.23;;;0.80;;
5006;SDS011;2522;50.972;11.046;2022-09-21T14:06:18;4.83;;;0.80;;
5006;SDS011;2522;50.972;11.046;2022-09-21T14:08:49;2.20;;;1.07;;
5006;SDS011;2522;50.972;11.046;2022-09-21T14:11:21;3.67;;;0.80;;
5006;SDS011;2522;50.972;11.046;2022-09-21T14:14:07;4.93;;;0.63;;
5006;SDS011;2522;50.972;11.046;2022-09-21T14:16:49;1.43;;;0.60;;
5006;SDS011;2522;50.972;11.046;2022-09-21T14:25:50;3.00;;;0.70;;
5006;SDS011;2522;50.972;11.046;2022-09-21T14:28:24;6.87;;;0.80;;
5006;SDS011;2522;50.972;11.046;2022-09-21T14:31:00;4.20;;;0.70;;
5006;SDS011;2522;50.972;11.046;2022-09-21T14:33:32;4.63;;;0.70;;
5006;SDS011;2522;50.972;11.046;2022-09-21T14:36:07;7.83;;;0.70;;
5006;SDS011;2522;50.972;11.046;2022-09-21T14:38:44;1.63;;;0.80;;
5006;SDS011;2522;50.972;11.046;2022-09-21T14:41:15;3.37;;;0.93;;
5006;SDS011;2522;50.972;11.046;2022-09-21T14:43:50;2.20;;;0.70;;
5006;SDS011;2522;50.972;11.046;2022-09-21T14:46:35;5.33;;;0.70;;
5006;SDS011;2522;50.972;11.046;2022-09-21T14:49:18;3.90;;;0.90;;
5006;SDS011;2522;50.972;11.046;2022-09-21T14:51:56;4.73;;;0.70;;
5006;SDS011;2522;50.972;11.046;2022-09-21T14:54:36;1.00;;;0.50;;
5006;SDS011;2522;50.972;11.046;2022-09-21T14:57:15;1.43;;;0.73;;
5006;SDS011;2522;50.972;11.046;2022-09-21T15:00:11;2.00;;;0.53;;
5006;SDS011;2522;50.972;11.046;2022-09-21T15:02:46;0.90;;;0.50;;
5006;SDS011;2522;50.972;11.046;2022-09-21T15:05:21;2.60;;;0.70;;
5006;SDS011;2522;50.972;11.046;2022-09-21T15:08:04;3.07;;;0.67;;
5006;SDS011;2522;50.972;11.046;2022-09-21T15:11:00;3.10;;;0.63;;
5006;SDS011;2522;50.972;11.046;2022-09-21T15:13:46;1.40;;;0.50;;
5006;SDS011;2522;50.972;11.046;2022-09-21T15:16:27;1.67;;;0.60;;
5006;SDS011;2522;50.972;11.046;2022-09-21T15:19:19;2.80;;;0.90;;
5006;SDS011;2522;50.972;11.046;2022-09-21T15:21:48;8.83;;;0.60;;
5006;SDS011;2522;50.972;11.046;2022-09-21T15:24:17;1.03;;;0.63;;
5006;SDS011;2522;50.972;11.046;2022-09-21T15:26:48;2.40;;;0.60;;
5006;SDS011;2522;50.972;11.046;2022-09-21T15:29:19;4.30;;;0.50;;
5006;SDS011;2522;50.972;11.046;2022-09-21T15:31:49;2.43;;;0.60;;
5006;SDS011;2522;50.972;11.046;2022-09-21T15:34:17;3.40;;;1.00;;
5006;SDS011;2522;50.972;11.046;2022-09-21T15:36:44;2.63;;;0.70;;
5006;SDS011;2522;50.972;11.046;2022-09-21T15:39:21;1.77;;;0.70;;
5006;SDS011;2522;50.972;11.046;2022-09-21T15:44:48;4.67;;;0.67;;
5006;SDS011;2522;50.972;11.046;2022-09-21T15:47:16;2.37;;;0.70;;
5006;SDS011;2522;50.972;11.046;2022-09-21T15:49:47;1.63;;;0.50;;
5006;SDS011;2522;50.972;11.046;2022-09-21T15:52:18;3.37;;;0.93;;
5006;SDS011;2522;50.972;11.046;2022-09-21T15:54:52;3.53;;;1.70;;
5006;SDS011;2522;50.972;11.046;2022-09-21T15:57:27;3.37;;;1.50;;
5006;SDS011;2522;50.972;11.046;2022-09-21T15:59:57;2.77;;;1.00;;
5006;SDS011;2522;50.972;11.046;2022-09-21T16:02:25;1.67;;;0.77;;
5006;SDS011;2522;50.972;11.046;2022-09-21T16:04:56;6.57;;;1.70;;
5006;SDS011;2522;50.972;11.046;2022-09-21T16:07:24;3.10;;;1.23;;
5006;SDS011;2522;50.972;11.046;2022-09-21T16:09:52;2.63;;;0.80;;
5006;SDS011;2522;50.972;11.046;2022-09-21T16:12:36;4.97;;;0.73;;
5006;SDS011;2522;50.972;11.046;2022-09-21T16:15:05;2.63;;;0.90;;
5006;SDS011;2522;50.972;11.046;2022-09-21T16:20:54;2.50;;;0.83;;
5006;SDS011;2522;50.972;11.046;2022-09-21T16:23:21;1.40;;;0.70;;
5006;SDS011;2522;50.972;11.046;2022-09-21T16:25:53;0.90;;;0.50;;
5006;SDS011;2522;50.972;11.046;2022-09-21T16:28:27;5.97;;;0.80;;
5006;SDS011;2522;50.972;11.046;2022-09-21T16:30:59;1.60;;;0.80;;
5006;SDS011;2522;50.972;11.046;2022-09-21T16:33:58;2.23;;;0.80;;
5006;SDS011;2522;50.972;11.046;2022-09-21T16:36:43;0.87;;;0.57;;
5006;SDS011;2522;50.972;11.046;2022-09-21T16:39:12;1.27;;;0.60;;
5006;SDS011;2522;50.972;11.046;2022-09-21T16:41:42;1.80;;;0.70;;
5006;SDS011;2522;50.972;11.046;2022-09-21T16:44:14;3.90;;;0.70;;
5006;SDS011;2522;50.972;11.046;2022-09-21T16:46:50;1.63;;;0.50;;
5006;SDS011;2522;50.972;11.046;2022-09-21T16:49:22;2.07;;;0.60;;
5006;SDS011;2522;50.972;11.046;2022-09-21T16:51:52;3.10;;;0.70;;
5006;SDS011;2522;50.972;11.046;2022-09-21T16:54:19;1.30;;;0.67;;
5006;SDS011;2522;50.972;11.046;2022-09-21T16:56:48;1.30;;;0.63;;
5006;SDS011;2522;50.972;11.046;2022-09-21T16:59:17;2.83;;;0.83;;
5006;SDS011;2522;50.972;11.046;2022-09-21T17:01:47;1.67;;;0.60;;
5006;SDS011;2522;50.972;11.046;2022-09-21T17:04:15;1.20;;;0.60;;
5006;SDS011;2522;50.972;11.046;2022-09-21T17:06:42;3.40;;;0.83;;
5006;SDS011;2522;50.972;11.046;2022-09-21T17:09:15;8.70;;;1.77;;
5006;SDS011;2522;50.972;11.046;2022-09-21T17:11:44;4.03;;;1.70;;
5006;SDS011;2522;50.972;11.046;2022-09-21T17:14:12;5.00;;;1.80;;
5006;SDS011;2522;50.972;11.046;2022-09-21T17:16:42;5.40;;;2.03;;
5006;SDS011;2522;50.972;11.046;2022-09-21T17:19:10;1.10;;;0.77;;
5006;SDS011;2522;50.972;11.046;2022-09-21T17:21:37;6.23;;;0.80;;
5006;SDS011;2522;50.972;11.046;2022-09-21T17:24:04;8.73;;;1.67;;
5006;SDS011;2522;50.972;11.046;2022-09-21T17:26:31;4.17;;;1.20;;
5006;SDS011;2522;50.972;11.046;2022-09-21T17:28:59;4.80;;;1.43;;
5006;SDS011;2522;50.972;11.046;2022-09-21T17:31:27;2.63;;;0.80;;
5006;SDS011;2522;50.972;11.046;2022-09-21T17:33:57;4.70;;;1.10;;
5006;SDS011;2522;50.972;11.046;2022-09-21T17:36:26;3.63;;;0.90;;
5006;SDS011;2522;50.972;11.046;2022-09-21T17:38:52;5.70;;;0.90;;
5006;SDS011;2522;50.972;11.046;2022-09-21T17:41:22;4.47;;;1.00;;
5006;SDS011;2522;50.972;11.046;2022-09-21T17:43:54;2.40;;;0.90;;
5006;SDS011;2522;50.972;11.046;2022-09-21T17:46:27;3.53;;;1.30;;
5006;SDS011;2522;50.972;11.046;2022-09-21T17:49:02;8.27;;;1.50;;
5006;SDS011;2522;50.972;11.046;2022-09-21T17:51:30;2.50;;;1.27;;
5006;SDS011;2522;50.972;11.046;2022-09-21T17:54:14;4.40;;;1.40;;
5006;SDS011;2522;50.972;11.046;2022-09-21T17:56:43;4.33;;;1.33;;
5006;SDS011;2522;50.972;11.046;2022-09-21T17:59:17;7.70;;;1.40;;
5006;SDS011;2522;50.972;11.046;2022-09-21T18:01:53;2.20;;;1.23;;
5006;SDS011;2522;50.972;11.046;2022-09-21T18:04:25;7.40;;;2.00;;
5006;SDS011;2522;50.972;11.046;2022-09-21T18:06:54;4.20;;;1.50;;
5006;SDS011;2522;50.972;11.046;2022-09-21T18:09:22;4.17;;;1.63;;
5006;SDS011;2522;50.972;11.046;2022-09-21T18:15:08;3.20;;;1.40;;
5006;SDS011;2522;50.972;11.046;2022-09-21T18:17:47;3.00;;;1.20;;
5006;SDS011;2522;50.972;11.046;2022-09-21T18:20:31;5.60;;;1.60;;
5006;SDS011;2522;50.972;11.046;2022-09-21T18:23:11;4.97;;;1.50;;
5006;SDS011;2522;50.972;11.046;2022-09-21T18:25:44;3.70;;;2.40;;
5006;SDS011;2522;50.972;11.046;2022-09-21T18:28:17;13.97;;;8.00;;
5006;SDS011;2522;50.972;11.046;2022-09-21T18:30:54;14.90;;;6.40;;
5006;SDS011;2522;50.972;11.046;2022-09-21T18:33:32;13.93;;;2.80;;
5006;SDS011;2522;50.972;11.046;2022-09-21T18:36:17;8.13;;;2.93;;
5006;SDS011;2522;50.972;11.046;2022-09-21T18:39:01;8.40;;;2.77;;
5006;SDS011;2522;50.972;11.046;2022-09-21T18:41:43;5.93;;;3.07;;
5006;SDS011;2522;50.972;11.046;2022-09-21T18:44:17;4.93;;;2.67;;
5006;SDS011;2522;50.972;11.046;2022-09-21T18:46:54;4.87;;;3.13;;
5006;SDS011;2522;50.972;11.046;2022-09-21T18:49:39;5.70;;;2.63;;
5006;SDS011;2522;50.972;11.046;2022-09-21T18:52:16;15.93;;;5.87;;
5006;SDS011;2522;50.972;11.046;2022-09-21T18:54:53;19.30;;;8.30;;
5006;SDS011;2522;50.972;11.046;2022-09-21T18:57:20;26.60;;;10.93;;
5006;SDS011;2522;50.972;11.046;2022-09-21T18:59:48;18.13;;;8.67;;
5006;SDS011;2522;50.972;11.046;2022-09-21T19:02:17;8.43;;;4.83;;
5006;SDS011;2522;50.972;11.046;2022-09-21T19:04:45;7.63;;;3.50;;
5006;SDS011;2522;50.972;11.046;2022-09-21T19:07:17;15.00;;;4.60;;
5006;SDS011;2522;50.972;11.046;2022-09-21T19:09:52;23.20;;;7.97;;
5006;SDS011;2522;50.972;11.046;2022-09-21T19:12:32;21.70;;;8.07;;
5006;SDS011;2522;50.972;11.046;2022-09-21T19:15:27;30.77;;;8.80;;
5006;SDS011;2522;50.972;11.046;2022-09-21T19:18:07;18.70;;;7.37;;
5006;SDS011;2522;50.972;11.046;2022-09-21T19:20:48;24.40;;;9.20;;
5006;SDS011;2522;50.972;11.046;2022-09-21T19:23:28;21.30;;;8.13;;
5006;SDS011;2522;50.972;11.046;2022-09-21T19:26:02;17.90;;;7.40;;
5006;SDS011;2522;50.972;11.046;2022-09-21T19:28:45;15.93;;;6.73;;
5006;SDS011;2522;50.972;11.046;2022-09-21T19:31:25;19.03;;;7.37;;